createdAt,value
2022-11-10T00:01:10.764Z,11.30
2022-11-10T00:03:39.348Z,14.90
2022-11-10T00:06:10.762Z,13.57
2022-11-10T00:08:37.547Z,13.67
2022-11-10T00:11:08.847Z,9.90
2022-11-10T00:13:56.480Z,10.13
2022-11-10T00:16:42.207Z,8.00
2022-11-10T00:19:09.012Z,12.33
2022-11-10T00:21:37.148Z,9.83
2022-11-10T00:24:04.605Z,9.23
2022-11-10T00:26:31.372Z,10.17
2022-11-10T00:28:58.090Z,9.80
2022-11-10T00:31:24.857Z,12.47
2022-11-10T00:33:51.614Z,16.67
2022-11-10T00:36:18.294Z,9.17
2022-11-10T00:38:44.957Z,12.17
2022-11-10T00:41:17.440Z,10.97
2022-11-10T00:43:44.173Z,9.27
2022-11-10T00:46:12.630Z,8.90
2022-11-10T00:48:39.337Z,11.20
2022-11-10T00:51:06.421Z,14.13
2022-11-10T00:53:35.481Z,11.90
2022-11-10T00:56:02.257Z,11.70
2022-11-10T00:58:28.991Z,15.70
2022-11-10T01:01:02.704Z,11.27
2022-11-10T01:03:29.640Z,10.00
2022-11-10T01:05:56.375Z,10.20
2022-11-10T01:08:23.551Z,11.80
2022-11-10T01:10:50.734Z,10.97
2022-11-10T01:13:17.404Z,10.60
2022-11-10T01:15:44.122Z,12.43
2022-11-10T01:18:13.779Z,13.07
2022-11-10T01:20:40.516Z,9.37
2022-11-10T01:23:07.231Z,10.93
2022-11-10T01:25:33.941Z,10.23
2022-11-10T01:28:03.510Z,11.23
2022-11-10T01:30:30.248Z,11.57
2022-11-10T01:32:56.934Z,10.67
2022-11-10T01:35:26.562Z,12.13
2022-11-10T01:37:56.354Z,13.03
2022-11-10T01:40:23.171Z,10.27
2022-11-10T01:42:58.710Z,10.60
2022-11-10T01:45:28.402Z,8.30
2022-11-10T01:48:01.723Z,8.37
2022-11-10T01:50:32.530Z,8.60
2022-11-10T01:53:03.224Z,11.30
2022-11-10T01:55:30.875Z,9.37
2022-11-10T01:58:00.307Z,9.13
2022-11-10T02:00:27.092Z,9.73
2022-11-10T02:03:19.236Z,9.17
2022-11-10T02:05:46.482Z,9.63
2022-11-10T02:08:15.924Z,11.63
2022-11-10T02:10:42.869Z,10.03
2022-11-10T02:13:15.093Z,8.63
2022-11-10T02:15:42.272Z,11.07
2022-11-10T02:18:09.212Z,7.93
2022-11-10T02:20:35.962Z,9.80
2022-11-10T02:23:35.412Z,9.83
2022-11-10T02:26:05.461Z,9.03
2022-11-10T02:28:37.022Z,12.40
2022-11-10T02:31:04.934Z,9.47
2022-11-10T02:33:31.993Z,8.70
2022-11-10T02:36:04.298Z,15.67
2022-11-10T02:38:32.382Z,10.37
2022-11-10T02:40:59.156Z,10.00
2022-11-10T02:43:26.075Z,11.23
2022-11-10T02:45:52.786Z,11.43
2022-11-10T02:48:20.161Z,11.23
2022-11-10T02:50:46.983Z,18.80
2022-11-10T02:53:13.748Z,8.50
2022-11-10T02:55:40.467Z,9.70
2022-11-10T02:58:07.203Z,8.97
2022-11-10T03:00:33.927Z,11.33
2022-11-10T03:03:05.278Z,10.33
2022-11-10T03:05:32.972Z,9.80
2022-11-10T03:08:02.603Z,7.60
2022-11-10T03:10:34.856Z,9.87
2022-11-10T03:13:02.366Z,10.97
2022-11-10T03:15:29.579Z,6.77
2022-11-10T03:17:56.555Z,6.60
2022-11-10T03:20:23.448Z,6.00
2022-11-10T03:22:55.963Z,4.50
2022-11-10T03:25:22.654Z,4.07
2022-11-10T03:27:49.484Z,4.60
2022-11-10T03:30:16.291Z,8.13
2022-11-10T03:32:43.108Z,5.10
2022-11-10T03:35:10.888Z,7.00
2022-11-10T03:37:37.774Z,5.97
2022-11-10T03:40:04.876Z,5.37
2022-11-10T03:42:31.588Z,8.27
2022-11-10T03:44:58.302Z,5.30
2022-11-10T03:47:25.045Z,8.63
2022-11-10T03:49:51.726Z,6.07
2022-11-10T03:52:21.536Z,5.33
2022-11-10T03:54:51.643Z,17.00
2022-11-10T03:57:18.399Z,17.33
2022-11-10T03:59:45.126Z,12.27
2022-11-10T04:02:11.893Z,7.30
2022-11-10T04:04:57.230Z,18.57
2022-11-10T04:07:42.703Z,11.60
2022-11-10T04:10:12.869Z,8.03
2022-11-10T04:12:58.240Z,14.07
2022-11-10T04:15:43.521Z,13.00
2022-11-10T04:18:41.367Z,12.93
2022-11-10T04:21:08.069Z,13.93
2022-11-10T04:23:38.831Z,19.23
2022-11-10T04:26:26.873Z,8.57
2022-11-10T04:28:55.961Z,8.40
2022-11-10T04:31:24.329Z,11.60
2022-11-10T04:33:53.741Z,8.17
2022-11-10T04:36:23.448Z,7.13
2022-11-10T04:38:50.313Z,7.77
2022-11-10T04:41:17.771Z,8.27
2022-11-10T04:43:44.820Z,5.90
2022-11-10T04:46:36.145Z,15.17
2022-11-10T04:49:04.792Z,6.57
2022-11-10T04:51:37.102Z,5.60
2022-11-10T04:54:05.387Z,7.85
2022-11-10T04:56:32.256Z,6.90
2022-11-10T04:58:58.967Z,7.60
2022-11-10T05:01:27.826Z,8.20
2022-11-10T05:03:55.487Z,7.93
2022-11-10T05:06:22.758Z,7.57
2022-11-10T05:08:49.626Z,7.07
2022-11-10T05:11:16.694Z,7.17
2022-11-10T05:13:44.666Z,7.33
2022-11-10T05:16:12.395Z,8.00
2022-11-10T05:18:39.695Z,5.90
2022-11-10T05:21:06.582Z,8.07
2022-11-10T05:23:39.588Z,5.87
2022-11-10T05:26:12.381Z,5.57
2022-11-10T05:28:43.951Z,6.63
2022-11-10T05:31:11.571Z,4.90
2022-11-10T05:33:38.949Z,4.40
2022-11-10T05:36:06.712Z,6.80
2022-11-10T05:38:33.480Z,9.17
2022-11-10T05:41:00.384Z,4.73
2022-11-10T05:43:27.127Z,11.73
2022-11-10T05:45:53.868Z,9.00
2022-11-10T05:48:20.616Z,11.80
2022-11-10T05:50:47.410Z,5.70
2022-11-10T05:53:15.235Z,5.03
2022-11-10T05:55:41.939Z,8.77
2022-11-10T05:58:09.680Z,6.97
2022-11-10T06:00:36.593Z,8.33
2022-11-10T06:03:14.073Z,7.43
2022-11-10T06:05:41.000Z,7.27
2022-11-10T06:08:08.500Z,6.37
2022-11-10T06:10:36.275Z,7.17
2022-11-10T06:13:03.471Z,6.97
2022-11-10T06:15:30.593Z,4.93
2022-11-10T06:17:57.643Z,5.53
2022-11-10T06:20:26.225Z,5.23
2022-11-10T06:23:01.449Z,6.13
2022-11-10T06:25:32.987Z,11.10
2022-11-10T06:28:08.853Z,11.87
2022-11-10T06:30:37.791Z,11.17
2022-11-10T06:33:04.884Z,12.17
2022-11-10T06:35:31.834Z,14.80
2022-11-10T06:38:00.555Z,15.20
2022-11-10T06:40:28.429Z,13.07
2022-11-10T06:42:55.415Z,12.73
2022-11-10T06:45:22.820Z,9.50
2022-11-10T06:47:49.559Z,8.93
2022-11-10T06:50:17.072Z,6.93
2022-11-10T06:52:43.759Z,9.57
2022-11-10T06:55:10.504Z,6.60
2022-11-10T06:57:39.070Z,7.80
2022-11-10T07:00:06.542Z,11.97
2022-11-10T07:02:33.351Z,11.93
2022-11-10T07:05:00.140Z,12.10
2022-11-10T07:07:26.847Z,9.00
2022-11-10T07:09:53.584Z,6.70
2022-11-10T07:12:20.315Z,8.37
2022-11-10T07:14:46.965Z,8.83
2022-11-10T07:17:14.127Z,6.23
2022-11-10T07:19:40.832Z,7.73
2022-11-10T07:22:11.225Z,9.10
2022-11-10T07:24:38.304Z,9.03
2022-11-10T07:27:05.014Z,7.50
2022-11-10T07:29:34.480Z,6.73
2022-11-10T07:32:01.197Z,7.07
2022-11-10T07:34:28.013Z,5.60
2022-11-10T07:36:57.231Z,4.30
2022-11-10T07:39:26.960Z,3.87
2022-11-10T07:41:53.689Z,3.00
2022-11-10T07:44:20.365Z,3.75
2022-11-10T07:46:47.219Z,3.55
2022-11-10T07:49:14.018Z,3.22
2022-11-10T07:51:42.670Z,4.18
2022-11-10T07:54:09.594Z,6.22
2022-11-10T07:56:36.371Z,2.30
2022-11-10T07:59:03.237Z,2.25
2022-11-10T08:01:30.039Z,1.90
2022-11-10T08:03:56.834Z,1.60
2022-11-10T08:06:26.428Z,3.80
2022-11-10T08:08:53.159Z,3.10
2022-11-10T08:11:19.842Z,4.75
2022-11-10T08:13:46.543Z,3.42
2022-11-10T08:16:13.256Z,4.70
2022-11-10T08:18:39.953Z,5.28
2022-11-10T08:21:09.448Z,5.03
2022-11-10T08:23:36.261Z,5.40
2022-11-10T08:26:02.975Z,6.35
2022-11-10T08:28:29.728Z,6.00
2022-11-10T08:31:02.812Z,5.63
2022-11-10T08:33:31.926Z,5.53
2022-11-10T08:36:01.664Z,5.40
2022-11-10T08:38:28.471Z,6.33
2022-11-10T08:40:57.493Z,7.10
2022-11-10T08:43:24.891Z,8.60
2022-11-10T08:45:56.241Z,6.63
2022-11-10T08:48:23.064Z,8.03
2022-11-10T08:50:50.376Z,6.17
2022-11-10T08:53:24.275Z,6.13
2022-11-10T08:55:53.143Z,6.57
2022-11-10T08:58:22.661Z,7.67
2022-11-10T09:00:49.802Z,7.43
2022-11-10T09:03:19.380Z,7.73
2022-11-10T09:05:47.473Z,14.30
2022-11-10T09:08:15.103Z,8.33
2022-11-10T09:10:44.451Z,10.68
2022-11-10T09:13:13.066Z,9.60
2022-11-10T09:15:40.061Z,13.13
2022-11-10T09:18:07.810Z,8.82
2022-11-10T09:20:38.853Z,7.18
2022-11-10T09:23:13.864Z,6.70
2022-11-10T09:25:41.339Z,8.77
2022-11-10T09:28:15.334Z,8.02
2022-11-10T09:30:42.644Z,9.95
2022-11-10T09:33:09.347Z,5.22
2022-11-10T09:35:36.161Z,11.68
2022-11-10T09:38:05.888Z,7.55
2022-11-10T09:40:57.323Z,8.93
2022-11-10T09:43:42.582Z,6.93
2022-11-10T09:46:27.463Z,5.38
2022-11-10T09:49:06.887Z,10.88
2022-11-10T09:51:38.140Z,8.60
2022-11-10T09:54:13.038Z,4.97
2022-11-10T09:56:41.537Z,6.40
2022-11-10T09:59:18.434Z,4.05
2022-11-10T10:01:59.526Z,5.53
2022-11-10T10:04:32.955Z,4.28
2022-11-10T10:07:25.107Z,4.88
2022-11-10T10:10:18.107Z,3.67
2022-11-10T10:13:09.089Z,5.88
2022-11-10T10:16:03.342Z,5.40
2022-11-10T10:18:54.637Z,7.88
2022-11-10T10:22:07.616Z,4.28
2022-11-10T10:24:34.796Z,4.40
2022-11-10T10:27:06.168Z,7.30
2022-11-10T10:29:39.408Z,6.43
2022-11-10T10:32:12.361Z,6.68
2022-11-10T10:34:41.129Z,6.55
2022-11-10T10:37:30.225Z,5.03
2022-11-10T10:39:56.938Z,5.53
2022-11-10T10:42:33.139Z,5.18
2022-11-10T10:45:39.361Z,7.00
2022-11-10T10:48:24.816Z,4.38
2022-11-10T10:50:51.715Z,4.30
2022-11-10T10:53:24.247Z,8.27
2022-11-10T10:56:21.857Z,4.75
2022-11-10T10:58:55.562Z,6.05
2022-11-10T11:01:38.173Z,6.32
2022-11-10T11:04:28.956Z,5.53
2022-11-10T11:07:01.609Z,8.07
2022-11-10T11:09:42.583Z,6.47
2022-11-10T11:12:18.143Z,6.40
2022-11-10T11:14:46.226Z,6.38
2022-11-10T11:17:21.759Z,6.03
2022-11-10T11:19:59.409Z,7.30
2022-11-10T11:22:45.749Z,5.43
2022-11-10T11:25:30.973Z,5.05
2022-11-10T11:28:43.565Z,7.20
2022-11-10T11:31:30.026Z,5.20
2022-11-10T11:34:15.604Z,7.32
2022-11-10T11:36:55.520Z,6.57
2022-11-10T11:39:44.096Z,4.72
2022-11-10T11:42:31.918Z,5.75
2022-11-10T11:45:24.122Z,5.50
2022-11-10T11:48:19.773Z,5.80
2022-11-10T11:51:05.334Z,7.20
2022-11-10T11:53:50.384Z,7.65
2022-11-10T11:56:17.101Z,6.53
2022-11-10T11:58:45.886Z,5.78
2022-11-10T12:01:33.446Z,8.48
2022-11-10T12:04:45.553Z,5.35
2022-11-10T12:07:25.982Z,8.13
2022-11-10T12:10:22.838Z,4.47
2022-11-10T12:12:58.346Z,7.35
2022-11-10T12:15:40.120Z,8.77
2022-11-10T12:19:02.199Z,7.13
2022-11-10T12:21:51.853Z,6.45
2022-11-10T12:24:21.281Z,9.45
2022-11-10T12:26:55.818Z,7.07
2022-11-10T12:29:33.998Z,9.13
2022-11-10T12:32:28.923Z,5.35
2022-11-10T12:35:24.773Z,7.30
2022-11-10T12:38:13.425Z,7.55
2022-11-10T12:40:46.339Z,9.10
2022-11-10T12:43:38.778Z,6.18
2022-11-10T12:46:09.309Z,9.00
2022-11-10T12:48:53.276Z,8.68
2022-11-10T12:51:27.924Z,7.50
2022-11-10T12:53:54.654Z,7.22
2022-11-10T12:57:08.084Z,5.20
2022-11-10T12:59:37.682Z,4.90
2022-11-10T13:02:24.505Z,4.53
2022-11-10T13:05:10.123Z,8.45
2022-11-10T13:07:36.990Z,7.32
2022-11-10T13:10:18.746Z,8.35
2022-11-10T13:13:03.873Z,9.40
2022-11-10T13:15:39.721Z,8.77
2022-11-10T13:18:09.792Z,6.07
2022-11-10T13:20:39.562Z,5.03
2022-11-10T13:23:31.206Z,10.80
2022-11-10T13:26:09.220Z,6.88
2022-11-10T13:28:47.933Z,21.20
2022-11-10T13:31:31.139Z,10.27
2022-11-10T13:34:11.760Z,5.95
2022-11-10T13:36:47.313Z,6.47
2022-11-10T13:39:27.949Z,5.65
2022-11-10T13:42:03.047Z,4.18
2022-11-10T13:44:42.189Z,8.48
2022-11-10T13:47:09.097Z,7.40
2022-11-10T13:49:51.135Z,9.43
2022-11-10T13:52:43.645Z,6.68
2022-11-10T13:55:25.762Z,7.90
2022-11-10T13:58:18.491Z,6.13
2022-11-10T14:00:53.877Z,4.47
2022-11-10T14:03:45.790Z,7.50
2022-11-10T14:06:35.816Z,7.78
2022-11-10T14:09:29.118Z,5.93
2022-11-10T14:12:30.575Z,10.02
2022-11-10T14:15:02.947Z,8.27
2022-11-10T14:17:34.543Z,4.45
2022-11-10T14:20:02.536Z,8.55
2022-11-10T14:22:41.821Z,7.20
2022-11-10T14:25:36.837Z,7.22
2022-11-10T14:28:21.127Z,5.55
2022-11-10T14:30:53.038Z,7.47
2022-11-10T14:33:21.056Z,3.75
2022-11-10T14:35:58.476Z,6.50
2022-11-10T14:38:30.314Z,4.72
2022-11-10T14:41:02.330Z,5.38
2022-11-10T14:43:36.212Z,4.53
2022-11-10T14:46:05.135Z,6.72
2022-11-10T14:48:38.781Z,5.78
2022-11-10T14:51:13.170Z,5.78
2022-11-10T14:53:51.465Z,9.10
2022-11-10T14:56:23.347Z,4.90
2022-11-10T14:58:53.808Z,7.20
2022-11-10T15:01:27.099Z,4.73
2022-11-10T15:03:54.684Z,6.13
2022-11-10T15:06:25.013Z,7.97
2022-11-10T15:08:51.707Z,7.97
2022-11-10T15:11:51.355Z,6.70
2022-11-10T15:15:00.495Z,9.00
2022-11-10T15:17:47.400Z,13.27
2022-11-10T15:20:35.108Z,10.03
2022-11-10T15:23:06.168Z,6.80
2022-11-10T15:25:40.934Z,5.87
2022-11-10T15:28:13.855Z,6.50
2022-11-10T15:30:55.253Z,7.83
2022-11-10T15:33:26.596Z,6.87
2022-11-10T15:35:55.662Z,6.23
2022-11-10T15:38:27.690Z,6.00
2022-11-10T15:41:16.492Z,5.57
2022-11-10T15:43:45.960Z,9.17
2022-11-10T15:46:18.103Z,9.67
2022-11-10T15:48:51.423Z,8.90
2022-11-10T15:51:25.677Z,6.73
2022-11-10T15:53:54.263Z,7.87
2022-11-10T15:56:22.902Z,4.80
2022-11-10T15:58:57.668Z,6.73
2022-11-10T16:01:27.643Z,5.30
2022-11-10T16:03:55.136Z,7.53
2022-11-10T16:06:22.175Z,9.13
2022-11-10T16:08:48.948Z,6.87
2022-11-10T16:11:22.651Z,7.53
2022-11-10T16:13:52.007Z,10.33
2022-11-10T16:16:20.288Z,9.73
2022-11-10T16:18:47.106Z,11.07
2022-11-10T16:21:16.400Z,11.10
2022-11-10T16:23:43.839Z,12.67
2022-11-10T16:26:15.663Z,8.80
2022-11-10T16:28:44.276Z,11.43
2022-11-10T16:31:12.269Z,8.80
2022-11-10T16:33:40.474Z,11.93
2022-11-10T16:36:13.273Z,10.77
2022-11-10T16:38:43.114Z,12.10
2022-11-10T16:41:13.890Z,10.63
2022-11-10T16:43:41.159Z,13.83
2022-11-10T16:46:34.864Z,14.70
2022-11-10T16:49:02.274Z,10.77
2022-11-10T16:51:30.289Z,15.00
2022-11-10T16:53:59.511Z,17.60
2022-11-10T16:56:27.396Z,16.20
2022-11-10T16:58:54.916Z,18.13
2022-11-10T17:01:23.374Z,18.00
2022-11-10T17:03:52.177Z,17.60
2022-11-10T17:06:19.838Z,19.87
2022-11-10T17:08:48.341Z,23.23
2022-11-10T17:11:16.353Z,14.77
2022-11-10T17:13:43.175Z,13.87
2022-11-10T17:16:21.289Z,13.27
2022-11-10T17:18:48.779Z,14.03
2022-11-10T17:21:15.583Z,17.47
2022-11-10T17:23:42.510Z,13.70
2022-11-10T17:26:12.092Z,14.90
2022-11-10T17:28:38.754Z,12.43
2022-11-10T17:31:05.534Z,12.80
2022-11-10T17:33:32.254Z,17.70
2022-11-10T17:36:00.290Z,14.83
2022-11-10T17:38:29.144Z,16.50
2022-11-10T17:40:56.352Z,16.00
2022-11-10T17:43:24.277Z,20.43
2022-11-10T17:45:51.594Z,14.30
2022-11-10T17:48:21.317Z,13.50
2022-11-10T17:50:50.952Z,20.07
2022-11-10T17:53:17.717Z,14.97
2022-11-10T17:55:44.444Z,14.87
2022-11-10T17:58:11.388Z,20.30
2022-11-10T18:00:38.292Z,16.47
2022-11-10T18:03:09.029Z,17.90
2022-11-10T18:05:38.194Z,14.40
2022-11-10T18:08:05.019Z,17.13
2022-11-10T18:10:31.768Z,15.03
2022-11-10T18:12:59.458Z,30.20
2022-11-10T18:15:26.732Z,20.87
2022-11-10T18:17:59.947Z,20.57
2022-11-10T18:20:27.708Z,15.60
2022-11-10T18:22:54.466Z,18.20
2022-11-10T18:25:21.206Z,17.30
2022-11-10T18:27:47.943Z,15.60
2022-11-10T18:30:15.206Z,12.17
2022-11-10T18:32:41.954Z,13.80
2022-11-10T18:35:08.860Z,15.87
2022-11-10T18:37:38.908Z,15.10
2022-11-10T18:40:07.380Z,16.13
2022-11-10T18:42:34.435Z,13.00
2022-11-10T18:45:01.155Z,13.00
2022-11-10T18:47:27.882Z,16.37
2022-11-10T18:49:54.571Z,15.47
2022-11-10T18:52:21.266Z,18.50
2022-11-10T18:54:47.941Z,13.67
2022-11-10T18:57:16.641Z,16.90
2022-11-10T18:59:43.603Z,16.67
2022-11-10T19:02:13.759Z,16.67
2022-11-10T19:04:40.894Z,15.17
2022-11-10T19:07:07.661Z,17.43
2022-11-10T19:09:34.396Z,16.60
2022-11-10T19:12:01.081Z,17.40
2022-11-10T19:14:27.798Z,13.43
2022-11-10T19:16:54.617Z,19.43
2022-11-10T19:19:21.306Z,16.83
2022-11-10T19:21:48.097Z,15.60
2022-11-10T19:24:25.854Z,19.43
2022-11-10T19:26:54.432Z,22.60
2022-11-10T19:29:21.230Z,19.17
2022-11-10T19:31:49.172Z,17.43
2022-11-10T19:34:18.590Z,23.07
2022-11-10T19:36:46.235Z,22.57
2022-11-10T19:39:13.175Z,20.50
2022-11-10T19:41:39.927Z,24.90
2022-11-10T19:44:06.649Z,19.67
2022-11-10T19:46:36.833Z,17.27
2022-11-10T19:49:04.461Z,19.07
2022-11-10T19:51:31.245Z,15.63
2022-11-10T19:54:01.613Z,20.50
2022-11-10T19:56:31.857Z,16.00
2022-11-10T19:58:59.168Z,16.87
2022-11-10T20:01:26.520Z,15.73
2022-11-10T20:03:53.852Z,15.93
2022-11-10T20:06:22.617Z,15.47
2022-11-10T20:08:50.640Z,18.10
2022-11-10T20:11:22.086Z,15.43
2022-11-10T20:13:54.251Z,12.40
2022-11-10T20:16:22.024Z,12.90
2022-11-10T20:18:49.180Z,11.77
2022-11-10T20:21:18.687Z,15.53
2022-11-10T20:23:45.882Z,20.17
2022-11-10T20:26:14.399Z,18.50
2022-11-10T20:28:41.895Z,17.60
2022-11-10T20:31:20.621Z,18.63
2022-11-10T20:33:48.598Z,19.50
2022-11-10T20:36:20.346Z,20.10
2022-11-10T20:38:49.913Z,17.90
2022-11-10T20:41:18.987Z,18.37
2022-11-10T20:43:46.433Z,14.47
2022-11-10T20:46:33.190Z,15.87
2022-11-10T20:49:04.286Z,13.90
2022-11-10T20:51:31.379Z,16.03
2022-11-10T20:54:00.235Z,25.63
2022-11-10T20:56:29.957Z,27.07
2022-11-10T20:58:57.872Z,28.70
2022-11-10T21:01:25.076Z,26.63
2022-11-10T21:03:52.717Z,25.90
2022-11-10T21:06:19.921Z,22.87
2022-11-10T21:08:47.029Z,24.37
2022-11-10T21:11:34.090Z,25.07
2022-11-10T21:14:01.535Z,22.63
2022-11-10T21:16:29.058Z,24.80
2022-11-10T21:18:56.776Z,26.87
2022-11-10T21:21:27.644Z,24.40
2022-11-10T21:23:57.410Z,21.93
2022-11-10T21:26:24.818Z,22.07
2022-11-10T21:28:51.933Z,22.43
2022-11-10T21:31:19.123Z,24.07
2022-11-10T21:33:46.292Z,19.73
2022-11-10T21:36:13.404Z,21.23
2022-11-10T21:38:40.646Z,23.43
2022-11-10T21:41:07.716Z,23.30
2022-11-10T21:43:35.378Z,25.67
2022-11-10T21:46:02.505Z,22.80
2022-11-10T21:48:29.588Z,27.47
2022-11-10T21:51:03.569Z,24.30
2022-11-10T21:53:30.988Z,21.57
2022-11-10T21:55:58.901Z,21.57
2022-11-10T21:58:25.974Z,21.60
2022-11-10T22:00:53.129Z,17.40
2022-11-10T22:03:20.446Z,19.47
2022-11-10T22:05:47.761Z,14.37
2022-11-10T22:08:18.336Z,13.03
2022-11-10T22:11:06.963Z,13.23
2022-11-10T22:13:52.841Z,13.30
2022-11-10T22:16:41.021Z,17.10
2022-11-10T22:19:08.689Z,15.03
2022-11-10T22:21:35.784Z,12.50
2022-11-10T22:24:21.732Z,13.97
2022-11-10T22:26:48.852Z,12.43
2022-11-10T22:29:15.966Z,11.77
2022-11-10T22:31:43.087Z,13.60
2022-11-10T22:34:10.166Z,12.57
2022-11-10T22:36:37.342Z,10.23
2022-11-10T22:39:04.902Z,12.87
2022-11-10T22:41:50.718Z,11.63
2022-11-10T22:44:19.462Z,15.17
2022-11-10T22:46:52.143Z,10.77
2022-11-10T22:49:21.128Z,16.57
2022-11-10T22:51:50.572Z,9.90
2022-11-10T22:54:22.868Z,13.67
2022-11-10T22:56:50.958Z,14.77
2022-11-10T22:59:18.159Z,14.17
2022-11-10T23:01:44.944Z,13.33
2022-11-10T23:04:12.092Z,14.90
2022-11-10T23:06:38.910Z,14.63
2022-11-10T23:09:06.066Z,20.17
2022-11-10T23:11:33.746Z,15.80
2022-11-10T23:14:00.633Z,14.33
2022-11-10T23:16:29.861Z,11.23
2022-11-10T23:18:57.628Z,11.70
2022-11-10T23:21:27.401Z,15.30
2022-11-10T23:23:54.876Z,16.13
2022-11-10T23:26:24.125Z,18.03
2022-11-10T23:28:52.570Z,15.90
2022-11-10T23:31:21.997Z,19.60
2022-11-10T23:33:51.164Z,18.87
2022-11-10T23:36:19.217Z,26.30
2022-11-10T23:38:47.072Z,25.20
2022-11-10T23:41:16.320Z,15.93
2022-11-10T23:43:43.313Z,16.13
2022-11-10T23:46:11.089Z,18.70
2022-11-10T23:48:38.895Z,15.80
2022-11-10T23:51:07.344Z,34.23
2022-11-10T23:53:34.093Z,22.00
2022-11-10T23:56:03.703Z,20.07
2022-11-10T23:58:30.448Z,18.77
